Terminal Aerodrome Forecast
Issued by NWS

Home | Current Version | Previous Version | Text Only | Print | Product List | Glossary On
Versions: 1 2 3 4 5 6 7 8 9 10 11 12 13
069
FTUS46 KSEW 240525
TAFBLI
TAF
KBLI 240525Z 2406/2506 15012KT P6SM -SHRA SCT018 OVC040
     FM241900 13007KT P6SM -SHRA SCT012 OVC020
     FM250100 15015G24KT P6SM -SHRA SCT020 OVC040=

USA.gov is the U.S. government's official web portal to all federal, state and local government web resources and services.